createdAt,value
2023-01-29T00:02:24.517Z,12.23
2023-01-29T00:05:28.492Z,11.48
2023-01-29T00:08:34.078Z,10.88
2023-01-29T00:11:37.112Z,11.37
2023-01-29T00:14:39.877Z,12.27
2023-01-29T00:17:42.828Z,11.60
2023-01-29T00:20:46.582Z,11.43
2023-01-29T00:23:50.478Z,11.65
2023-01-29T00:26:53.282Z,11.13
2023-01-29T00:30:16.482Z,12.63
2023-01-29T00:33:20.127Z,10.90
2023-01-29T00:36:23.543Z,12.93
2023-01-29T00:39:31.377Z,12.00
2023-01-29T00:42:57.668Z,11.23
2023-01-29T00:46:03.970Z,11.57
2023-01-29T00:49:07.675Z,11.73
2023-01-29T00:52:25.846Z,10.77
2023-01-29T00:55:28.656Z,10.52
2023-01-29T00:58:34.521Z,10.73
2023-01-29T01:01:56.255Z,11.07
2023-01-29T01:05:07.907Z,10.48
2023-01-29T01:08:29.456Z,11.02
2023-01-29T01:11:33.864Z,10.68
2023-01-29T01:14:37.711Z,11.83
2023-01-29T01:17:40.481Z,12.23
2023-01-29T01:20:44.504Z,11.10
2023-01-29T01:23:52.165Z,11.18
2023-01-29T01:26:55.257Z,11.80
2023-01-29T01:29:58.156Z,11.30
2023-01-29T01:33:01.757Z,11.30
2023-01-29T01:36:11.462Z,10.80
2023-01-29T01:39:14.571Z,11.75
2023-01-29T01:42:17.522Z,11.27
2023-01-29T01:45:28.363Z,10.80
2023-01-29T01:48:31.203Z,10.77
2023-01-29T01:51:41.411Z,11.68
2023-01-29T01:54:44.701Z,11.55
2023-01-29T01:57:53.243Z,10.57
2023-01-29T02:00:57.193Z,11.57
2023-01-29T02:04:25.193Z,10.33
2023-01-29T02:07:46.699Z,12.93
2023-01-29T02:10:50.243Z,11.20
2023-01-29T02:13:53.860Z,11.15
2023-01-29T02:17:02.068Z,9.83
2023-01-29T02:20:24.573Z,10.93
2023-01-29T02:24:05.303Z,13.45
2023-01-29T02:27:12.535Z,9.82
2023-01-29T02:30:32.366Z,11.95
2023-01-29T02:34:05.368Z,11.40
2023-01-29T02:37:11.261Z,10.20
2023-01-29T02:40:30.366Z,11.05
2023-01-29T02:43:50.164Z,11.25
2023-01-29T02:46:59.179Z,9.88
2023-01-29T02:50:38.217Z,10.67
2023-01-29T02:54:13.558Z,11.07
2023-01-29T02:57:34.342Z,11.43
2023-01-29T03:00:42.808Z,10.98
2023-01-29T03:03:56.376Z,10.07
2023-01-29T03:07:04.266Z,11.00
2023-01-29T03:10:26.468Z,11.03
2023-01-29T03:13:49.671Z,10.93
2023-01-29T03:16:54.515Z,10.20
2023-01-29T03:19:58.526Z,10.98
2023-01-29T03:23:11.748Z,11.40
2023-01-29T03:26:37.002Z,10.53
2023-01-29T03:30:02.145Z,10.30
2023-01-29T03:33:26.614Z,10.70
2023-01-29T03:36:38.361Z,10.75
2023-01-29T03:39:42.038Z,10.33
2023-01-29T03:43:05.180Z,11.77
2023-01-29T03:46:19.046Z,11.00
2023-01-29T03:49:40.088Z,10.95
2023-01-29T03:53:10.436Z,9.82
2023-01-29T03:56:19.290Z,11.23
2023-01-29T03:59:35.798Z,10.43
2023-01-29T04:03:34.327Z,11.15
2023-01-29T04:06:43.773Z,9.93
2023-01-29T04:10:15.843Z,11.15
2023-01-29T04:13:20.486Z,9.40
2023-01-29T04:16:29.560Z,11.03
2023-01-29T04:19:51.182Z,10.00
2023-01-29T04:22:54.456Z,12.45
2023-01-29T04:26:24.091Z,10.65
2023-01-29T04:29:38.304Z,9.93
2023-01-29T04:33:03.435Z,12.70
2023-01-29T04:36:21.362Z,10.80
2023-01-29T04:39:37.620Z,11.60
2023-01-29T04:42:49.155Z,10.88
2023-01-29T04:46:31.753Z,10.23
2023-01-29T04:49:47.104Z,10.03
2023-01-29T04:53:17.977Z,11.98
2023-01-29T04:56:34.070Z,10.65
2023-01-29T04:59:45.539Z,10.07
2023-01-29T05:02:49.453Z,11.17
2023-01-29T05:05:54.237Z,10.67
2023-01-29T05:08:57.692Z,10.43
2023-01-29T05:12:02.791Z,10.23
2023-01-29T05:15:12.703Z,10.85
2023-01-29T05:18:16.675Z,12.10
2023-01-29T05:21:23.270Z,9.73
2023-01-29T05:24:27.005Z,10.45
2023-01-29T05:27:54.087Z,11.27
2023-01-29T05:30:57.736Z,9.82
2023-01-29T05:34:00.739Z,10.87
2023-01-29T05:37:03.728Z,10.87
2023-01-29T05:40:08.951Z,10.88
2023-01-29T05:43:29.966Z,11.30
2023-01-29T05:46:32.759Z,10.93
2023-01-29T05:49:37.876Z,11.20
2023-01-29T05:52:41.854Z,9.97
2023-01-29T05:55:46.066Z,10.18
2023-01-29T05:58:51.456Z,10.32
2023-01-29T06:01:54.265Z,10.20
2023-01-29T06:04:57.205Z,9.50
2023-01-29T06:07:59.925Z,10.13
2023-01-29T06:11:04.789Z,10.70
2023-01-29T06:14:07.618Z,10.23
2023-01-29T06:17:11.779Z,10.50
2023-01-29T06:20:15.347Z,10.80
2023-01-29T06:23:18.435Z,11.53
2023-01-29T06:26:21.292Z,11.10
2023-01-29T06:29:24.139Z,10.52
2023-01-29T06:32:28.055Z,11.10
2023-01-29T06:35:30.910Z,11.20
2023-01-29T06:38:34.164Z,11.27
2023-01-29T06:41:37.076Z,10.43
2023-01-29T06:44:39.935Z,9.35
2023-01-29T06:47:42.719Z,10.02
2023-01-29T06:50:45.736Z,10.00
2023-01-29T06:53:48.476Z,10.30
2023-01-29T06:56:52.202Z,11.02
2023-01-29T06:59:55.026Z,9.65
2023-01-29T07:02:57.846Z,11.32
2023-01-29T07:06:00.659Z,10.83
2023-01-29T07:09:04.915Z,10.60
2023-01-29T07:12:08.700Z,9.73
2023-01-29T07:15:12.894Z,10.65
2023-01-29T07:18:15.852Z,10.38
2023-01-29T07:21:18.740Z,10.67
2023-01-29T07:24:21.637Z,10.97
2023-01-29T07:27:24.906Z,10.82
2023-01-29T07:30:31.416Z,11.63
2023-01-29T07:33:35.452Z,9.23
2023-01-29T07:36:38.277Z,10.47
2023-01-29T07:39:40.979Z,10.80
2023-01-29T07:42:44.312Z,11.32
2023-01-29T07:45:47.143Z,9.85
2023-01-29T07:48:49.983Z,9.60
2023-01-29T07:51:56.656Z,10.23
2023-01-29T07:54:59.815Z,10.03
2023-01-29T07:58:03.661Z,10.85
2023-01-29T08:01:08.090Z,11.68
2023-01-29T08:04:10.841Z,11.63
2023-01-29T08:07:13.776Z,10.03
2023-01-29T08:10:17.601Z,9.77
2023-01-29T08:13:21.644Z,11.38
2023-01-29T08:16:24.544Z,10.38
2023-01-29T08:19:27.609Z,10.73
2023-01-29T08:22:30.513Z,10.53
2023-01-29T08:25:35.097Z,10.63
2023-01-29T08:28:38.992Z,10.68
2023-01-29T08:31:45.656Z,11.55
2023-01-29T08:34:48.972Z,9.70
2023-01-29T08:37:56.475Z,10.90
2023-01-29T08:40:59.388Z,9.73
2023-01-29T08:44:04.491Z,10.50
2023-01-29T08:47:09.988Z,8.77
2023-01-29T08:50:12.926Z,9.55
2023-01-29T08:53:16.146Z,9.77
2023-01-29T08:56:19.133Z,9.77
2023-01-29T08:59:23.046Z,9.90
2023-01-29T09:02:25.915Z,9.88
2023-01-29T09:05:29.494Z,9.15
2023-01-29T09:08:32.515Z,9.70
2023-01-29T09:11:35.465Z,10.23
2023-01-29T09:14:38.285Z,11.38
2023-01-29T09:17:41.417Z,10.05
2023-01-29T09:20:44.315Z,9.13
2023-01-29T09:23:47.285Z,9.37
2023-01-29T09:26:56.216Z,9.60
2023-01-29T09:29:59.771Z,9.38
2023-01-29T09:33:08.318Z,9.02
2023-01-29T09:36:11.144Z,9.68
2023-01-29T09:39:14.391Z,9.53
2023-01-29T09:42:24.451Z,9.63
2023-01-29T09:45:29.619Z,9.35
2023-01-29T09:48:35.865Z,9.23
2023-01-29T09:51:46.821Z,9.23
2023-01-29T09:55:07.041Z,9.00
2023-01-29T09:58:28.373Z,8.90
2023-01-29T10:01:33.922Z,9.43
2023-01-29T10:04:39.700Z,8.68
2023-01-29T10:08:21.123Z,8.05
2023-01-29T10:11:47.211Z,9.37
2023-01-29T10:15:09.227Z,9.17
2023-01-29T10:18:24.082Z,8.70
2023-01-29T10:21:39.217Z,8.85
2023-01-29T10:24:55.537Z,9.00
2023-01-29T10:27:59.799Z,8.53
2023-01-29T10:31:12.755Z,8.07
2023-01-29T10:34:33.536Z,8.40
2023-01-29T10:37:43.588Z,8.98
2023-01-29T10:41:11.823Z,8.90
2023-01-29T10:44:36.357Z,7.97
2023-01-29T10:48:06.258Z,7.83
2023-01-29T10:51:32.340Z,8.40
2023-01-29T10:54:59.846Z,8.32
2023-01-29T10:58:23.894Z,8.10
2023-01-29T11:01:27.645Z,7.80
2023-01-29T11:04:32.486Z,8.20
2023-01-29T11:07:38.149Z,8.68
2023-01-29T11:11:09.749Z,8.38
2023-01-29T11:14:16.843Z,8.57
2023-01-29T11:17:22.199Z,8.37
2023-01-29T11:20:29.832Z,8.43
2023-01-29T11:23:34.290Z,7.53
2023-01-29T11:26:41.064Z,8.27
2023-01-29T11:29:48.358Z,8.45
2023-01-29T11:33:08.216Z,8.03
2023-01-29T11:36:47.083Z,8.13
2023-01-29T11:39:50.772Z,8.60
2023-01-29T11:42:53.902Z,8.50
2023-01-29T11:46:11.920Z,8.77
2023-01-29T11:49:31.856Z,7.77
2023-01-29T11:52:38.838Z,7.30
2023-01-29T11:55:50.895Z,8.68
2023-01-29T11:58:56.436Z,7.30
2023-01-29T12:02:20.173Z,7.45
2023-01-29T12:05:25.874Z,7.57
2023-01-29T12:08:36.369Z,7.47
2023-01-29T12:11:39.642Z,7.30
2023-01-29T12:14:44.785Z,9.07
2023-01-29T12:17:56.684Z,9.15
2023-01-29T12:21:05.284Z,7.40
2023-01-29T12:24:24.947Z,7.83
2023-01-29T12:27:49.930Z,7.57
2023-01-29T12:31:15.271Z,8.70
2023-01-29T12:34:44.662Z,8.45
2023-01-29T12:38:14.909Z,7.93
2023-01-29T12:41:41.401Z,8.13
2023-01-29T12:44:57.169Z,7.75
2023-01-29T12:48:06.568Z,7.43
2023-01-29T12:51:22.625Z,6.78
2023-01-29T12:54:41.291Z,7.03
2023-01-29T12:57:47.339Z,7.03
2023-01-29T13:00:55.390Z,8.15
2023-01-29T13:04:04.459Z,7.10
2023-01-29T13:07:33.341Z,7.47
2023-01-29T13:10:41.604Z,8.17
2023-01-29T13:14:00.171Z,7.77
2023-01-29T13:17:22.143Z,6.68
2023-01-29T13:20:32.965Z,7.68
2023-01-29T13:23:40.219Z,7.43
2023-01-29T13:26:48.186Z,8.03
2023-01-29T13:29:52.077Z,7.60
2023-01-29T13:33:10.130Z,7.88
2023-01-29T13:36:19.629Z,7.68
2023-01-29T13:39:35.506Z,8.27
2023-01-29T13:42:42.417Z,7.40
2023-01-29T13:45:46.093Z,7.40
2023-01-29T13:48:52.783Z,7.63
2023-01-29T13:51:57.572Z,7.70
2023-01-29T13:55:21.611Z,6.80
2023-01-29T13:58:33.950Z,8.87
2023-01-29T14:01:48.887Z,7.67
2023-01-29T14:04:52.874Z,6.93
2023-01-29T14:07:59.390Z,7.75
2023-01-29T14:11:17.955Z,7.45
2023-01-29T14:14:49.118Z,8.63
2023-01-29T14:18:20.558Z,7.83
2023-01-29T14:21:29.925Z,7.07
2023-01-29T14:24:34.546Z,8.15
2023-01-29T14:27:37.849Z,7.80
2023-01-29T14:30:50.273Z,8.27
2023-01-29T14:33:54.517Z,7.77
2023-01-29T14:37:16.129Z,8.35
2023-01-29T14:40:19.199Z,7.82
2023-01-29T14:43:23.007Z,7.90
2023-01-29T14:46:35.197Z,8.03
2023-01-29T14:50:16.963Z,7.53
2023-01-29T14:53:54.729Z,7.32
2023-01-29T14:57:06.665Z,7.65
2023-01-29T15:00:28.439Z,7.35
2023-01-29T15:04:02.728Z,7.40
2023-01-29T15:07:12.348Z,7.00
2023-01-29T15:10:45.969Z,7.20
2023-01-29T15:14:25.104Z,7.28
2023-01-29T15:17:38.315Z,6.43
2023-01-29T15:20:44.602Z,7.83
2023-01-29T15:23:48.930Z,6.73
2023-01-29T15:26:56.945Z,6.85
2023-01-29T15:30:03.439Z,7.78
2023-01-29T15:33:10.888Z,7.93
2023-01-29T15:36:28.208Z,6.80
2023-01-29T15:39:32.026Z,7.43
2023-01-29T15:42:48.950Z,8.15
2023-01-29T15:46:03.359Z,6.70
2023-01-29T15:49:10.466Z,6.97
2023-01-29T15:52:19.503Z,6.03
2023-01-29T15:55:23.984Z,7.57
2023-01-29T15:58:32.206Z,6.97
2023-01-29T16:01:35.888Z,7.88
2023-01-29T16:04:39.355Z,7.68
2023-01-29T16:07:43.858Z,7.77
2023-01-29T16:10:53.235Z,7.47
2023-01-29T16:13:57.932Z,7.63
2023-01-29T16:17:36.383Z,7.50
2023-01-29T16:20:45.671Z,6.45
2023-01-29T16:23:52.391Z,7.30
2023-01-29T16:27:02.703Z,7.37
2023-01-29T16:30:08.081Z,6.95
2023-01-29T16:33:42.906Z,6.57
2023-01-29T16:36:49.531Z,6.97
2023-01-29T16:39:55.606Z,8.00
2023-01-29T16:43:19.729Z,6.80
2023-01-29T16:46:27.401Z,7.55
2023-01-29T16:49:34.397Z,7.97
2023-01-29T16:52:38.832Z,7.45
2023-01-29T16:55:49.869Z,8.07
2023-01-29T16:58:58.366Z,7.20
2023-01-29T17:02:26.330Z,8.48
2023-01-29T17:05:34.285Z,7.90
2023-01-29T17:08:42.326Z,7.88
2023-01-29T17:11:46.865Z,7.77
2023-01-29T17:14:59.847Z,7.40
2023-01-29T17:18:06.465Z,7.40
2023-01-29T17:21:11.267Z,7.47
2023-01-29T17:24:16.913Z,7.40
2023-01-29T17:27:25.388Z,7.60
2023-01-29T17:30:35.550Z,7.73
2023-01-29T17:33:45.553Z,7.43
2023-01-29T17:36:49.825Z,7.95
2023-01-29T17:39:55.957Z,7.28
2023-01-29T17:43:00.567Z,7.27
2023-01-29T17:46:06.657Z,8.20
2023-01-29T17:49:20.286Z,7.75
2023-01-29T17:52:24.564Z,7.53
2023-01-29T17:55:28.926Z,7.28
2023-01-29T17:58:33.357Z,7.17
2023-01-29T18:01:38.365Z,7.40
2023-01-29T18:04:43.063Z,7.22
2023-01-29T18:07:48.771Z,7.75
2023-01-29T18:10:52.764Z,7.28
2023-01-29T18:14:14.198Z,6.30
2023-01-29T18:17:22.992Z,7.27
2023-01-29T18:20:29.332Z,6.85
2023-01-29T18:23:33.284Z,6.57
2023-01-29T18:26:38.283Z,7.03
2023-01-29T18:29:42.387Z,6.93
2023-01-29T18:32:48.143Z,6.77
2023-01-29T18:35:53.383Z,7.65
2023-01-29T18:38:58.110Z,7.80
2023-01-29T18:42:02.682Z,7.15
2023-01-29T18:45:08.564Z,7.20
2023-01-29T18:48:13.147Z,7.00
2023-01-29T18:51:17.442Z,7.40
2023-01-29T18:54:22.733Z,7.10
2023-01-29T18:58:24.727Z,7.28
2023-01-29T19:00:51.091Z,7.80
2023-01-29T19:03:56.783Z,8.10
2023-01-29T19:07:01.012Z,6.63
2023-01-29T19:10:13.395Z,7.32
2023-01-29T19:13:17.704Z,7.47
2023-01-29T19:16:24.157Z,7.30
2023-01-29T19:19:30.459Z,6.53
2023-01-29T19:22:35.391Z,6.95
2023-01-29T19:25:40.454Z,7.97
2023-01-29T19:28:44.803Z,8.55
2023-01-29T19:31:50.600Z,8.37
2023-01-29T19:34:54.366Z,7.37
2023-01-29T19:37:58.174Z,7.22
2023-01-29T19:41:02.587Z,7.05
2023-01-29T19:44:06.955Z,8.13
2023-01-29T19:47:11.142Z,6.80
2023-01-29T19:50:15.146Z,7.27
2023-01-29T19:53:19.556Z,7.32
2023-01-29T19:56:24.075Z,7.82
2023-01-29T19:59:28.414Z,6.80
2023-01-29T20:02:34.848Z,7.70
2023-01-29T20:05:39.202Z,5.87
2023-01-29T20:09:03.127Z,7.68
2023-01-29T20:12:07.232Z,7.05
2023-01-29T20:15:15.144Z,6.80
2023-01-29T20:18:20.197Z,7.33
2023-01-29T20:21:25.512Z,7.20
2023-01-29T20:24:30.910Z,7.22
2023-01-29T20:27:36.031Z,8.13
2023-01-29T20:30:43.822Z,7.43
2023-01-29T20:33:48.729Z,7.47
2023-01-29T20:36:53.285Z,8.57
2023-01-29T20:39:58.306Z,8.25
2023-01-29T20:43:02.068Z,8.50
2023-01-29T20:46:05.894Z,7.65
2023-01-29T20:49:10.421Z,8.17
2023-01-29T20:52:14.462Z,8.33
2023-01-29T20:55:19.477Z,7.47
2023-01-29T20:58:24.039Z,8.00
2023-01-29T21:01:28.872Z,8.55
2023-01-29T21:04:34.080Z,7.73
2023-01-29T21:07:38.357Z,8.03
2023-01-29T21:10:44.027Z,8.13
2023-01-29T21:13:48.024Z,8.02
2023-01-29T21:16:52.080Z,7.50
2023-01-29T21:19:56.596Z,9.00
2023-01-29T21:23:01.415Z,9.27
2023-01-29T21:26:07.993Z,8.88
2023-01-29T21:29:14.221Z,10.30
2023-01-29T21:32:19.447Z,11.00
2023-01-29T21:35:22.622Z,9.30
2023-01-29T21:38:26.135Z,11.43
2023-01-29T21:41:49.404Z,11.75
2023-01-29T21:44:52.435Z,11.93
2023-01-29T21:47:55.635Z,11.82
2023-01-29T21:50:59.199Z,11.33
2023-01-29T21:54:03.660Z,10.93
2023-01-29T21:57:14.479Z,12.07
2023-01-29T22:00:36.826Z,12.10
2023-01-29T22:03:39.697Z,12.93
2023-01-29T22:06:42.629Z,12.13
2023-01-29T22:09:45.344Z,14.00
2023-01-29T22:12:48.457Z,12.32
2023-01-29T22:15:55.296Z,11.65
2023-01-29T22:18:58.904Z,12.57
2023-01-29T22:22:01.743Z,11.47
2023-01-29T22:25:05.331Z,12.53
2023-01-29T22:28:08.187Z,11.48
2023-01-29T22:31:11.579Z,10.85
2023-01-29T22:34:14.900Z,12.02
2023-01-29T22:37:17.645Z,11.90
2023-01-29T22:40:20.781Z,12.30
2023-01-29T22:43:26.138Z,10.93
2023-01-29T22:46:29.082Z,13.65
2023-01-29T22:49:32.299Z,11.23
2023-01-29T22:52:42.860Z,11.40
2023-01-29T22:55:54.917Z,11.67
2023-01-29T22:58:59.655Z,11.80
2023-01-29T23:02:02.483Z,12.02
2023-01-29T23:05:05.802Z,12.27
2023-01-29T23:08:08.577Z,11.37
2023-01-29T23:11:14.828Z,9.97
2023-01-29T23:14:20.059Z,11.55
2023-01-29T23:17:23.075Z,11.43
2023-01-29T23:20:25.809Z,11.75
2023-01-29T23:23:29.597Z,9.83
2023-01-29T23:26:50.678Z,11.40
2023-01-29T23:29:53.528Z,11.25
2023-01-29T23:32:56.281Z,11.07
2023-01-29T23:35:59.101Z,11.85
2023-01-29T23:39:01.916Z,11.20
2023-01-29T23:42:04.961Z,13.23
2023-01-29T23:45:08.175Z,11.23
2023-01-29T23:48:10.993Z,10.60
2023-01-29T23:51:13.829Z,10.70
2023-01-29T23:54:17.802Z,10.10
2023-01-29T23:57:21.227Z,12.27
